sensor_id;sensor_type;location;lat;lon;timestamp;P1;durP1;ratioP1;P2;durP2;ratioP2
22334;SDS011;11335;43.848;25.958;2022-10-16T00:01:12;20.25;;;14.07;;
22334;SDS011;11335;43.848;25.958;2022-10-16T00:03:58;21.23;;;13.95;;
22334;SDS011;11335;43.848;25.958;2022-10-16T00:06:44;19.92;;;14.77;;
22334;SDS011;11335;43.848;25.958;2022-10-16T00:09:30;21.85;;;13.45;;
22334;SDS011;11335;43.848;25.958;2022-10-16T00:12:15;19.08;;;12.90;;
22334;SDS011;11335;43.848;25.958;2022-10-16T00:15:01;19.05;;;13.25;;
22334;SDS011;11335;43.848;25.958;2022-10-16T00:17:47;18.33;;;12.40;;
22334;SDS011;11335;43.848;25.958;2022-10-16T00:20:35;19.13;;;12.88;;
22334;SDS011;11335;43.848;25.958;2022-10-16T00:23:22;19.23;;;12.63;;
22334;SDS011;11335;43.848;25.958;2022-10-16T00:26:08;23.27;;;13.27;;
22334;SDS011;11335;43.848;25.958;2022-10-16T00:28:54;21.90;;;12.88;;
22334;SDS011;11335;43.848;25.958;2022-10-16T00:31:40;19.83;;;12.65;;
22334;SDS011;11335;43.848;25.958;2022-10-16T00:34:26;19.05;;;12.52;;
22334;SDS011;11335;43.848;25.958;2022-10-16T00:37:11;23.92;;;12.75;;
22334;SDS011;11335;43.848;25.958;2022-10-16T00:39:57;19.58;;;12.27;;
22334;SDS011;11335;43.848;25.958;2022-10-16T00:42:43;18.73;;;12.10;;
22334;SDS011;11335;43.848;25.958;2022-10-16T00:45:28;17.58;;;11.88;;
22334;SDS011;11335;43.848;25.958;2022-10-16T00:48:14;18.48;;;12.27;;
22334;SDS011;11335;43.848;25.958;2022-10-16T00:51:00;14.45;;;11.13;;
22334;SDS011;11335;43.848;25.958;2022-10-16T00:53:45;15.30;;;11.45;;
22334;SDS011;11335;43.848;25.958;2022-10-16T00:56:31;16.77;;;11.95;;
22334;SDS011;11335;43.848;25.958;2022-10-16T00:59:27;17.30;;;11.40;;
22334;SDS011;11335;43.848;25.958;2022-10-16T01:02:14;17.77;;;12.32;;
22334;SDS011;11335;43.848;25.958;2022-10-16T01:05:00;19.73;;;12.30;;
22334;SDS011;11335;43.848;25.958;2022-10-16T01:10:57;21.70;;;12.35;;
22334;SDS011;11335;43.848;25.958;2022-10-16T01:13:44;21.50;;;13.18;;
22334;SDS011;11335;43.848;25.958;2022-10-16T01:16:37;20.80;;;13.52;;
22334;SDS011;11335;43.848;25.958;2022-10-16T01:22:43;20.20;;;13.20;;
22334;SDS011;11335;43.848;25.958;2022-10-16T01:25:47;19.77;;;12.68;;
22334;SDS011;11335;43.848;25.958;2022-10-16T01:28:37;18.95;;;11.80;;
22334;SDS011;11335;43.848;25.958;2022-10-16T01:31:24;16.15;;;12.00;;
22334;SDS011;11335;43.848;25.958;2022-10-16T01:37:02;14.23;;;10.88;;
22334;SDS011;11335;43.848;25.958;2022-10-16T01:39:48;15.48;;;11.00;;
22334;SDS011;11335;43.848;25.958;2022-10-16T01:42:36;15.77;;;11.13;;
22334;SDS011;11335;43.848;25.958;2022-10-16T01:45:22;17.30;;;11.80;;
22334;SDS011;11335;43.848;25.958;2022-10-16T01:48:09;18.05;;;10.90;;
22334;SDS011;11335;43.848;25.958;2022-10-16T01:50:59;14.93;;;10.52;;
22334;SDS011;11335;43.848;25.958;2022-10-16T01:53:47;14.07;;;9.73;;
22334;SDS011;11335;43.848;25.958;2022-10-16T01:56:33;18.52;;;10.38;;
22334;SDS011;11335;43.848;25.958;2022-10-16T01:59:20;16.17;;;10.55;;
22334;SDS011;11335;43.848;25.958;2022-10-16T02:02:07;15.35;;;10.52;;
22334;SDS011;11335;43.848;25.958;2022-10-16T02:04:55;22.05;;;11.40;;
22334;SDS011;11335;43.848;25.958;2022-10-16T02:07:42;13.60;;;10.15;;
22334;SDS011;11335;43.848;25.958;2022-10-16T02:10:28;14.55;;;10.10;;
22334;SDS011;11335;43.848;25.958;2022-10-16T02:13:23;13.15;;;9.20;;
22334;SDS011;11335;43.848;25.958;2022-10-16T02:16:12;15.68;;;9.10;;
22334;SDS011;11335;43.848;25.958;2022-10-16T02:18:58;14.07;;;9.65;;
22334;SDS011;11335;43.848;25.958;2022-10-16T02:21:45;14.38;;;8.98;;
22334;SDS011;11335;43.848;25.958;2022-10-16T02:32:57;17.40;;;9.55;;
22334;SDS011;11335;43.848;25.958;2022-10-16T02:35:46;15.38;;;9.68;;
22334;SDS011;11335;43.848;25.958;2022-10-16T02:38:32;16.08;;;9.27;;
22334;SDS011;11335;43.848;25.958;2022-10-16T02:41:20;14.15;;;9.63;;
22334;SDS011;11335;43.848;25.958;2022-10-16T02:44:05;14.82;;;9.77;;
22334;SDS011;11335;43.848;25.958;2022-10-16T02:46:51;17.65;;;9.20;;
22334;SDS011;11335;43.848;25.958;2022-10-16T02:49:36;17.58;;;10.13;;
22334;SDS011;11335;43.848;25.958;2022-10-16T02:52:22;14.73;;;10.23;;
22334;SDS011;11335;43.848;25.958;2022-10-16T02:55:08;17.92;;;10.85;;
22334;SDS011;11335;43.848;25.958;2022-10-16T02:57:53;14.25;;;10.13;;
22334;SDS011;11335;43.848;25.958;2022-10-16T03:00:39;16.90;;;10.45;;
22334;SDS011;11335;43.848;25.958;2022-10-16T03:03:25;18.35;;;11.25;;
22334;SDS011;11335;43.848;25.958;2022-10-16T03:06:10;18.58;;;11.68;;
22334;SDS011;11335;43.848;25.958;2022-10-16T03:08:56;21.92;;;12.45;;
22334;SDS011;11335;43.848;25.958;2022-10-16T03:11:41;15.63;;;12.60;;
22334;SDS011;11335;43.848;25.958;2022-10-16T03:14:27;17.73;;;12.32;;
22334;SDS011;11335;43.848;25.958;2022-10-16T03:17:12;19.15;;;12.80;;
22334;SDS011;11335;43.848;25.958;2022-10-16T03:19:58;22.05;;;13.27;;
22334;SDS011;11335;43.848;25.958;2022-10-16T03:22:44;19.52;;;13.50;;
22334;SDS011;11335;43.848;25.958;2022-10-16T03:25:29;19.17;;;13.63;;
22334;SDS011;11335;43.848;25.958;2022-10-16T03:28:15;19.60;;;14.23;;
22334;SDS011;11335;43.848;25.958;2022-10-16T03:31:00;26.05;;;15.43;;
22334;SDS011;11335;43.848;25.958;2022-10-16T03:33:46;22.13;;;14.60;;
22334;SDS011;11335;43.848;25.958;2022-10-16T03:36:32;24.77;;;15.10;;
22334;SDS011;11335;43.848;25.958;2022-10-16T03:39:17;20.30;;;14.10;;
22334;SDS011;11335;43.848;25.958;2022-10-16T03:42:03;21.60;;;14.75;;
22334;SDS011;11335;43.848;25.958;2022-10-16T03:44:48;19.90;;;13.77;;
22334;SDS011;11335;43.848;25.958;2022-10-16T03:47:34;23.23;;;13.75;;
22334;SDS011;11335;43.848;25.958;2022-10-16T03:50:19;18.83;;;13.73;;
22334;SDS011;11335;43.848;25.958;2022-10-16T03:53:05;22.25;;;14.70;;
22334;SDS011;11335;43.848;25.958;2022-10-16T03:55:51;20.38;;;13.82;;
22334;SDS011;11335;43.848;25.958;2022-10-16T03:58:36;23.83;;;14.32;;
22334;SDS011;11335;43.848;25.958;2022-10-16T04:01:22;23.95;;;12.63;;
22334;SDS011;11335;43.848;25.958;2022-10-16T04:04:07;18.30;;;12.27;;
22334;SDS011;11335;43.848;25.958;2022-10-16T04:06:53;21.83;;;13.00;;
22334;SDS011;11335;43.848;25.958;2022-10-16T04:09:38;23.48;;;13.25;;
22334;SDS011;11335;43.848;25.958;2022-10-16T04:12:25;19.15;;;12.45;;
22334;SDS011;11335;43.848;25.958;2022-10-16T04:15:10;17.80;;;11.80;;
22334;SDS011;11335;43.848;25.958;2022-10-16T04:17:56;16.15;;;11.73;;
22334;SDS011;11335;43.848;25.958;2022-10-16T04:20:41;20.83;;;12.25;;
22334;SDS011;11335;43.848;25.958;2022-10-16T04:23:27;20.15;;;12.40;;
22334;SDS011;11335;43.848;25.958;2022-10-16T04:26:13;18.80;;;11.30;;
22334;SDS011;11335;43.848;25.958;2022-10-16T04:28:58;20.95;;;11.45;;
22334;SDS011;11335;43.848;25.958;2022-10-16T04:31:44;17.10;;;11.25;;
22334;SDS011;11335;43.848;25.958;2022-10-16T04:34:29;16.15;;;11.48;;
22334;SDS011;11335;43.848;25.958;2022-10-16T04:37:15;20.25;;;11.98;;
22334;SDS011;11335;43.848;25.958;2022-10-16T04:40:00;21.98;;;11.88;;
22334;SDS011;11335;43.848;25.958;2022-10-16T04:42:46;18.33;;;11.35;;
22334;SDS011;11335;43.848;25.958;2022-10-16T04:45:31;18.27;;;12.27;;
22334;SDS011;11335;43.848;25.958;2022-10-16T04:48:17;17.63;;;11.93;;
22334;SDS011;11335;43.848;25.958;2022-10-16T04:51:03;16.35;;;11.50;;
22334;SDS011;11335;43.848;25.958;2022-10-16T04:53:49;18.77;;;11.65;;
22334;SDS011;11335;43.848;25.958;2022-10-16T04:56:34;22.80;;;13.57;;
22334;SDS011;11335;43.848;25.958;2022-10-16T04:59:25;20.52;;;13.68;;
22334;SDS011;11335;43.848;25.958;2022-10-16T05:02:11;22.35;;;14.32;;
22334;SDS011;11335;43.848;25.958;2022-10-16T05:04:56;22.30;;;14.15;;
22334;SDS011;11335;43.848;25.958;2022-10-16T05:07:42;25.55;;;13.98;;
22334;SDS011;11335;43.848;25.958;2022-10-16T05:10:27;22.33;;;14.48;;
22334;SDS011;11335;43.848;25.958;2022-10-16T05:13:13;20.02;;;13.82;;
22334;SDS011;11335;43.848;25.958;2022-10-16T05:15:58;21.77;;;13.95;;
22334;SDS011;11335;43.848;25.958;2022-10-16T05:18:44;22.98;;;14.73;;
22334;SDS011;11335;43.848;25.958;2022-10-16T05:21:30;31.38;;;16.40;;
22334;SDS011;11335;43.848;25.958;2022-10-16T05:24:15;30.50;;;16.85;;
22334;SDS011;11335;43.848;25.958;2022-10-16T05:27:01;28.95;;;17.10;;
22334;SDS011;11335;43.848;25.958;2022-10-16T05:29:47;36.42;;;19.23;;
22334;SDS011;11335;43.848;25.958;2022-10-16T05:32:33;38.20;;;20.33;;
22334;SDS011;11335;43.848;25.958;2022-10-16T05:35:19;36.40;;;20.67;;
22334;SDS011;11335;43.848;25.958;2022-10-16T05:38:04;37.30;;;20.52;;
22334;SDS011;11335;43.848;25.958;2022-10-16T05:40:51;31.70;;;19.60;;
22334;SDS011;11335;43.848;25.958;2022-10-16T05:43:37;35.90;;;20.00;;
22334;SDS011;11335;43.848;25.958;2022-10-16T05:46:23;30.65;;;17.92;;
22334;SDS011;11335;43.848;25.958;2022-10-16T05:49:08;25.63;;;16.75;;
22334;SDS011;11335;43.848;25.958;2022-10-16T05:51:54;22.23;;;15.77;;
22334;SDS011;11335;43.848;25.958;2022-10-16T05:54:40;27.30;;;16.58;;
22334;SDS011;11335;43.848;25.958;2022-10-16T05:57:25;20.90;;;14.55;;
22334;SDS011;11335;43.848;25.958;2022-10-16T06:00:11;20.35;;;13.50;;
22334;SDS011;11335;43.848;25.958;2022-10-16T06:02:56;25.27;;;14.85;;
22334;SDS011;11335;43.848;25.958;2022-10-16T06:05:42;20.02;;;15.00;;
22334;SDS011;11335;43.848;25.958;2022-10-16T06:08:28;23.77;;;14.95;;
22334;SDS011;11335;43.848;25.958;2022-10-16T06:11:18;23.60;;;14.80;;
22334;SDS011;11335;43.848;25.958;2022-10-16T06:14:04;26.92;;;15.02;;
22334;SDS011;11335;43.848;25.958;2022-10-16T06:16:52;19.77;;;14.23;;
22334;SDS011;11335;43.848;25.958;2022-10-16T06:19:37;21.60;;;14.68;;
22334;SDS011;11335;43.848;25.958;2022-10-16T06:22:25;22.45;;;14.00;;
22334;SDS011;11335;43.848;25.958;2022-10-16T06:25:11;21.42;;;14.70;;
22334;SDS011;11335;43.848;25.958;2022-10-16T06:27:57;19.27;;;13.30;;
22334;SDS011;11335;43.848;25.958;2022-10-16T06:30:42;20.67;;;13.95;;
22334;SDS011;11335;43.848;25.958;2022-10-16T06:33:29;20.95;;;14.95;;
22334;SDS011;11335;43.848;25.958;2022-10-16T06:36:15;21.52;;;14.68;;
22334;SDS011;11335;43.848;25.958;2022-10-16T06:39:02;22.48;;;14.27;;
22334;SDS011;11335;43.848;25.958;2022-10-16T06:41:48;23.38;;;15.30;;
22334;SDS011;11335;43.848;25.958;2022-10-16T06:44:34;21.25;;;14.55;;
22334;SDS011;11335;43.848;25.958;2022-10-16T06:47:19;22.45;;;15.50;;
22334;SDS011;11335;43.848;25.958;2022-10-16T06:50:05;22.02;;;15.80;;
22334;SDS011;11335;43.848;25.958;2022-10-16T06:52:52;21.25;;;16.20;;
22334;SDS011;11335;43.848;25.958;2022-10-16T06:55:38;25.88;;;15.80;;
22334;SDS011;11335;43.848;25.958;2022-10-16T06:58:24;22.50;;;16.13;;
22334;SDS011;11335;43.848;25.958;2022-10-16T07:01:10;21.73;;;14.93;;
22334;SDS011;11335;43.848;25.958;2022-10-16T07:03:56;20.77;;;15.07;;
22334;SDS011;11335;43.848;25.958;2022-10-16T07:06:42;21.05;;;14.60;;
22334;SDS011;11335;43.848;25.958;2022-10-16T07:09:27;21.48;;;15.57;;
22334;SDS011;11335;43.848;25.958;2022-10-16T07:12:13;19.52;;;15.35;;
22334;SDS011;11335;43.848;25.958;2022-10-16T07:14:58;22.95;;;16.70;;
22334;SDS011;11335;43.848;25.958;2022-10-16T07:17:44;22.95;;;16.13;;
22334;SDS011;11335;43.848;25.958;2022-10-16T07:20:30;22.67;;;16.75;;
22334;SDS011;11335;43.848;25.958;2022-10-16T07:23:15;22.92;;;17.10;;
22334;SDS011;11335;43.848;25.958;2022-10-16T07:26:01;24.63;;;17.30;;
22334;SDS011;11335;43.848;25.958;2022-10-16T07:28:47;24.75;;;16.83;;
22334;SDS011;11335;43.848;25.958;2022-10-16T07:31:33;23.85;;;15.93;;
22334;SDS011;11335;43.848;25.958;2022-10-16T07:34:18;23.90;;;17.50;;
22334;SDS011;11335;43.848;25.958;2022-10-16T07:37:04;19.70;;;14.88;;
22334;SDS011;11335;43.848;25.958;2022-10-16T07:39:50;23.02;;;15.35;;
22334;SDS011;11335;43.848;25.958;2022-10-16T07:42:35;20.55;;;14.80;;
22334;SDS011;11335;43.848;25.958;2022-10-16T07:45:21;19.23;;;15.07;;
22334;SDS011;11335;43.848;25.958;2022-10-16T07:48:06;20.27;;;14.10;;
22334;SDS011;11335;43.848;25.958;2022-10-16T07:50:52;21.13;;;15.15;;
22334;SDS011;11335;43.848;25.958;2022-10-16T07:53:38;18.83;;;13.52;;
22334;SDS011;11335;43.848;25.958;2022-10-16T07:56:23;20.15;;;13.65;;
22334;SDS011;11335;43.848;25.958;2022-10-16T07:59:09;18.25;;;13.68;;
22334;SDS011;11335;43.848;25.958;2022-10-16T08:01:55;17.48;;;12.75;;
22334;SDS011;11335;43.848;25.958;2022-10-16T08:04:40;18.52;;;12.80;;
22334;SDS011;11335;43.848;25.958;2022-10-16T08:07:26;21.17;;;14.07;;
22334;SDS011;11335;43.848;25.958;2022-10-16T08:10:14;19.02;;;14.10;;
22334;SDS011;11335;43.848;25.958;2022-10-16T08:13:01;18.95;;;14.32;;
22334;SDS011;11335;43.848;25.958;2022-10-16T08:15:46;23.83;;;12.70;;
22334;SDS011;11335;43.848;25.958;2022-10-16T08:18:32;16.08;;;10.98;;
22334;SDS011;11335;43.848;25.958;2022-10-16T08:21:18;13.57;;;9.55;;
22334;SDS011;11335;43.848;25.958;2022-10-16T08:24:04;13.82;;;9.48;;
22334;SDS011;11335;43.848;25.958;2022-10-16T08:26:50;11.80;;;8.02;;
22334;SDS011;11335;43.848;25.958;2022-10-16T08:29:35;13.73;;;8.25;;
22334;SDS011;11335;43.848;25.958;2022-10-16T08:32:21;16.85;;;8.50;;
22334;SDS011;11335;43.848;25.958;2022-10-16T08:35:07;12.60;;;7.95;;
22334;SDS011;11335;43.848;25.958;2022-10-16T08:37:52;13.65;;;8.40;;
22334;SDS011;11335;43.848;25.958;2022-10-16T08:40:38;13.90;;;7.95;;
22334;SDS011;11335;43.848;25.958;2022-10-16T08:43:41;16.27;;;9.05;;
22334;SDS011;11335;43.848;25.958;2022-10-16T08:46:35;13.15;;;9.20;;
22334;SDS011;11335;43.848;25.958;2022-10-16T08:49:23;16.10;;;9.45;;
22334;SDS011;11335;43.848;25.958;2022-10-16T08:52:10;15.27;;;9.35;;
22334;SDS011;11335;43.848;25.958;2022-10-16T08:54:57;13.82;;;9.45;;
22334;SDS011;11335;43.848;25.958;2022-10-16T08:57:43;15.50;;;9.40;;
22334;SDS011;11335;43.848;25.958;2022-10-16T09:00:29;13.50;;;9.65;;
22334;SDS011;11335;43.848;25.958;2022-10-16T09:17:42;17.92;;;10.05;;
22334;SDS011;11335;43.848;25.958;2022-10-16T09:20:50;14.85;;;9.52;;
22334;SDS011;11335;43.848;25.958;2022-10-16T09:23:37;13.77;;;10.00;;
22334;SDS011;11335;43.848;25.958;2022-10-16T09:26:23;16.77;;;9.50;;
22334;SDS011;11335;43.848;25.958;2022-10-16T09:29:10;15.02;;;10.27;;
22334;SDS011;11335;43.848;25.958;2022-10-16T09:31:57;11.80;;;9.30;;
22334;SDS011;11335;43.848;25.958;2022-10-16T09:34:52;12.45;;;9.25;;
22334;SDS011;11335;43.848;25.958;2022-10-16T09:37:39;14.57;;;8.70;;
22334;SDS011;11335;43.848;25.958;2022-10-16T09:40:30;11.90;;;8.80;;
22334;SDS011;11335;43.848;25.958;2022-10-16T09:46:06;17.55;;;8.27;;
22334;SDS011;11335;43.848;25.958;2022-10-16T09:48:53;15.52;;;8.85;;
22334;SDS011;11335;43.848;25.958;2022-10-16T09:51:39;13.48;;;8.75;;
22334;SDS011;11335;43.848;25.958;2022-10-16T09:54:24;15.20;;;8.70;;
22334;SDS011;11335;43.848;25.958;2022-10-16T09:57:11;13.48;;;8.38;;
22334;SDS011;11335;43.848;25.958;2022-10-16T09:59:58;14.80;;;8.55;;
22334;SDS011;11335;43.848;25.958;2022-10-16T10:02:43;12.75;;;8.25;;
22334;SDS011;11335;43.848;25.958;2022-10-16T10:05:29;10.30;;;8.05;;
22334;SDS011;11335;43.848;25.958;2022-10-16T10:08:15;10.75;;;7.85;;
22334;SDS011;11335;43.848;25.958;2022-10-16T10:11:02;11.30;;;7.55;;
22334;SDS011;11335;43.848;25.958;2022-10-16T10:13:50;10.77;;;7.75;;
22334;SDS011;11335;43.848;25.958;2022-10-16T10:16:35;22.55;;;11.95;;
22334;SDS011;11335;43.848;25.958;2022-10-16T10:19:22;28.13;;;16.83;;
22334;SDS011;11335;43.848;25.958;2022-10-16T10:22:27;12.05;;;8.50;;
22334;SDS011;11335;43.848;25.958;2022-10-16T10:25:19;13.40;;;9.20;;
22334;SDS011;11335;43.848;25.958;2022-10-16T10:34:02;15.68;;;9.10;;
22334;SDS011;11335;43.848;25.958;2022-10-16T10:36:57;10.70;;;8.95;;
22334;SDS011;11335;43.848;25.958;2022-10-16T10:39:58;13.23;;;9.90;;
22334;SDS011;11335;43.848;25.958;2022-10-16T10:42:49;18.42;;;10.98;;
22334;SDS011;11335;43.848;25.958;2022-10-16T10:45:43;18.15;;;11.35;;
22334;SDS011;11335;43.848;25.958;2022-10-16T10:54:31;12.45;;;9.63;;
22334;SDS011;11335;43.848;25.958;2022-10-16T11:00:23;14.55;;;9.93;;
22334;SDS011;11335;43.848;25.958;2022-10-16T11:06:06;20.58;;;9.88;;
22334;SDS011;11335;43.848;25.958;2022-10-16T11:08:55;12.15;;;8.55;;
22334;SDS011;11335;43.848;25.958;2022-10-16T11:11:45;10.20;;;8.38;;
22334;SDS011;11335;43.848;25.958;2022-10-16T11:14:38;11.73;;;8.00;;
22334;SDS011;11335;43.848;25.958;2022-10-16T11:17:30;10.63;;;7.95;;
22334;SDS011;11335;43.848;25.958;2022-10-16T11:20:24;9.57;;;7.40;;
22334;SDS011;11335;43.848;25.958;2022-10-16T11:23:16;10.93;;;8.40;;
22334;SDS011;11335;43.848;25.958;2022-10-16T11:26:04;9.38;;;6.90;;
22334;SDS011;11335;43.848;25.958;2022-10-16T11:28:54;8.57;;;5.80;;
22334;SDS011;11335;43.848;25.958;2022-10-16T11:31:48;8.38;;;6.30;;
22334;SDS011;11335;43.848;25.958;2022-10-16T11:34:45;16.83;;;8.38;;
22334;SDS011;11335;43.848;25.958;2022-10-16T11:37:34;13.95;;;8.43;;
22334;SDS011;11335;43.848;25.958;2022-10-16T11:40:23;9.80;;;7.38;;
22334;SDS011;11335;43.848;25.958;2022-10-16T11:43:13;8.43;;;6.63;;
22334;SDS011;11335;43.848;25.958;2022-10-16T11:46:21;12.25;;;8.55;;
22334;SDS011;11335;43.848;25.958;2022-10-16T11:49:10;13.13;;;7.93;;
22334;SDS011;11335;43.848;25.958;2022-10-16T11:52:10;10.75;;;7.60;;
22334;SDS011;11335;43.848;25.958;2022-10-16T11:55:13;12.15;;;7.90;;
22334;SDS011;11335;43.848;25.958;2022-10-16T12:04:34;12.15;;;8.68;;
22334;SDS011;11335;43.848;25.958;2022-10-16T12:07:07;13.35;;;9.52;;
22334;SDS011;11335;43.848;25.958;2022-10-16T12:09:54;12.75;;;9.02;;
22334;SDS011;11335;43.848;25.958;2022-10-16T12:12:41;13.40;;;9.63;;
22334;SDS011;11335;43.848;25.958;2022-10-16T12:15:28;14.05;;;9.40;;
22334;SDS011;11335;43.848;25.958;2022-10-16T12:18:24;13.60;;;9.95;;
22334;SDS011;11335;43.848;25.958;2022-10-16T12:21:10;15.77;;;10.18;;
22334;SDS011;11335;43.848;25.958;2022-10-16T12:23:56;13.38;;;9.70;;
22334;SDS011;11335;43.848;25.958;2022-10-16T12:26:43;17.77;;;10.63;;
22334;SDS011;11335;43.848;25.958;2022-10-16T12:35:24;16.90;;;10.02;;
22334;SDS011;11335;43.848;25.958;2022-10-16T12:38:18;17.15;;;10.00;;
22334;SDS011;11335;43.848;25.958;2022-10-16T12:41:06;12.80;;;10.20;;
22334;SDS011;11335;43.848;25.958;2022-10-16T12:43:56;16.42;;;10.05;;
22334;SDS011;11335;43.848;25.958;2022-10-16T12:46:42;14.00;;;10.35;;
22334;SDS011;11335;43.848;25.958;2022-10-16T12:55:17;21.02;;;10.35;;
22334;SDS011;11335;43.848;25.958;2022-10-16T13:00:58;16.15;;;10.50;;
22334;SDS011;11335;43.848;25.958;2022-10-16T13:03:54;17.75;;;10.45;;
22334;SDS011;11335;43.848;25.958;2022-10-16T13:10:00;21.98;;;11.13;;
22334;SDS011;11335;43.848;25.958;2022-10-16T13:18:43;15.57;;;10.07;;
22334;SDS011;11335;43.848;25.958;2022-10-16T13:30:21;17.45;;;9.68;;
22334;SDS011;11335;43.848;25.958;2022-10-16T13:33:10;13.00;;;8.95;;
22334;SDS011;11335;43.848;25.958;2022-10-16T13:35:57;14.15;;;9.23;;
22334;SDS011;11335;43.848;25.958;2022-10-16T13:38:43;13.88;;;9.45;;
22334;SDS011;11335;43.848;25.958;2022-10-16T13:41:29;13.80;;;8.93;;
22334;SDS011;11335;43.848;25.958;2022-10-16T13:44:15;10.63;;;8.43;;
22334;SDS011;11335;43.848;25.958;2022-10-16T13:47:03;14.70;;;8.70;;
22334;SDS011;11335;43.848;25.958;2022-10-16T13:50:05;13.05;;;8.75;;
22334;SDS011;11335;43.848;25.958;2022-10-16T13:52:54;11.35;;;8.60;;
22334;SDS011;11335;43.848;25.958;2022-10-16T13:55:48;12.40;;;8.35;;
22334;SDS011;11335;43.848;25.958;2022-10-16T13:58:33;13.55;;;8.48;;
22334;SDS011;11335;43.848;25.958;2022-10-16T14:01:20;13.55;;;8.57;;
22334;SDS011;11335;43.848;25.958;2022-10-16T14:04:09;16.52;;;8.95;;
22334;SDS011;11335;43.848;25.958;2022-10-16T14:06:55;14.63;;;9.02;;
22334;SDS011;11335;43.848;25.958;2022-10-16T14:09:40;15.50;;;7.88;;
22334;SDS011;11335;43.848;25.958;2022-10-16T14:12:26;12.20;;;7.57;;
22334;SDS011;11335;43.848;25.958;2022-10-16T14:15:15;13.07;;;8.00;;
22334;SDS011;11335;43.848;25.958;2022-10-16T14:18:02;15.50;;;8.60;;
22334;SDS011;11335;43.848;25.958;2022-10-16T14:20:48;9.88;;;7.60;;
22334;SDS011;11335;43.848;25.958;2022-10-16T14:23:37;13.00;;;7.80;;
22334;SDS011;11335;43.848;25.958;2022-10-16T14:26:25;11.43;;;6.90;;
22334;SDS011;11335;43.848;25.958;2022-10-16T14:29:15;10.98;;;7.78;;
22334;SDS011;11335;43.848;25.958;2022-10-16T14:32:04;14.23;;;7.30;;
22334;SDS011;11335;43.848;25.958;2022-10-16T14:34:53;13.07;;;7.60;;
22334;SDS011;11335;43.848;25.958;2022-10-16T14:37:39;12.10;;;7.00;;
22334;SDS011;11335;43.848;25.958;2022-10-16T14:40:32;12.40;;;7.20;;
22334;SDS011;11335;43.848;25.958;2022-10-16T14:43:21;12.98;;;6.90;;
22334;SDS011;11335;43.848;25.958;2022-10-16T14:49:13;12.68;;;6.60;;
22334;SDS011;11335;43.848;25.958;2022-10-16T14:52:00;9.93;;;6.13;;
22334;SDS011;11335;43.848;25.958;2022-10-16T14:54:50;12.35;;;7.43;;
22334;SDS011;11335;43.848;25.958;2022-10-16T14:57:36;14.55;;;6.45;;
22334;SDS011;11335;43.848;25.958;2022-10-16T15:00:23;11.50;;;6.22;;
22334;SDS011;11335;43.848;25.958;2022-10-16T15:03:09;13.10;;;6.90;;
22334;SDS011;11335;43.848;25.958;2022-10-16T15:05:55;12.25;;;6.57;;
22334;SDS011;11335;43.848;25.958;2022-10-16T15:08:43;10.68;;;6.05;;
22334;SDS011;11335;43.848;25.958;2022-10-16T15:11:29;12.32;;;6.03;;
22334;SDS011;11335;43.848;25.958;2022-10-16T15:14:19;14.45;;;6.90;;
22334;SDS011;11335;43.848;25.958;2022-10-16T15:17:05;11.60;;;6.45;;
22334;SDS011;11335;43.848;25.958;2022-10-16T15:19:50;12.75;;;6.82;;
22334;SDS011;11335;43.848;25.958;2022-10-16T15:22:36;14.02;;;6.97;;
22334;SDS011;11335;43.848;25.958;2022-10-16T15:28:17;11.60;;;6.85;;
22334;SDS011;11335;43.848;25.958;2022-10-16T15:31:03;15.02;;;7.00;;
22334;SDS011;11335;43.848;25.958;2022-10-16T15:33:50;13.05;;;7.43;;
22334;SDS011;11335;43.848;25.958;2022-10-16T15:36:38;15.68;;;8.02;;
22334;SDS011;11335;43.848;25.958;2022-10-16T15:39:24;16.38;;;8.10;;
22334;SDS011;11335;43.848;25.958;2022-10-16T15:42:10;16.60;;;8.35;;
22334;SDS011;11335;43.848;25.958;2022-10-16T15:44:56;19.80;;;8.23;;
22334;SDS011;11335;43.848;25.958;2022-10-16T15:47:41;15.45;;;7.45;;
22334;SDS011;11335;43.848;25.958;2022-10-16T15:50:27;13.95;;;8.50;;
22334;SDS011;11335;43.848;25.958;2022-10-16T15:53:13;16.48;;;8.77;;
22334;SDS011;11335;43.848;25.958;2022-10-16T15:56:00;20.00;;;9.05;;
22334;SDS011;11335;43.848;25.958;2022-10-16T15:58:46;14.15;;;8.98;;
22334;SDS011;11335;43.848;25.958;2022-10-16T16:01:32;17.17;;;9.45;;
22334;SDS011;11335;43.848;25.958;2022-10-16T16:04:18;20.48;;;10.02;;
22334;SDS011;11335;43.848;25.958;2022-10-16T16:07:04;20.77;;;10.65;;
22334;SDS011;11335;43.848;25.958;2022-10-16T16:09:52;23.73;;;11.50;;
22334;SDS011;11335;43.848;25.958;2022-10-16T16:12:38;22.27;;;11.57;;
22334;SDS011;11335;43.848;25.958;2022-10-16T16:15:24;25.98;;;12.10;;
22334;SDS011;11335;43.848;25.958;2022-10-16T16:18:09;21.30;;;12.90;;
22334;SDS011;11335;43.848;25.958;2022-10-16T16:20:55;25.05;;;13.80;;
22334;SDS011;11335;43.848;25.958;2022-10-16T16:23:41;29.85;;;14.40;;
22334;SDS011;11335;43.848;25.958;2022-10-16T16:26:27;25.83;;;15.88;;
22334;SDS011;11335;43.848;25.958;2022-10-16T16:29:16;25.55;;;14.50;;
22334;SDS011;11335;43.848;25.958;2022-10-16T16:32:01;38.50;;;18.00;;
22334;SDS011;11335;43.848;25.958;2022-10-16T16:34:47;36.75;;;18.80;;
22334;SDS011;11335;43.848;25.958;2022-10-16T16:37:33;34.45;;;18.55;;
22334;SDS011;11335;43.848;25.958;2022-10-16T16:40:19;35.17;;;17.70;;
22334;SDS011;11335;43.848;25.958;2022-10-16T16:43:04;31.08;;;17.85;;
22334;SDS011;11335;43.848;25.958;2022-10-16T16:45:50;42.20;;;19.25;;
22334;SDS011;11335;43.848;25.958;2022-10-16T16:48:36;36.70;;;18.00;;
22334;SDS011;11335;43.848;25.958;2022-10-16T16:51:22;34.90;;;19.00;;
22334;SDS011;11335;43.848;25.958;2022-10-16T16:54:08;38.05;;;21.80;;
22334;SDS011;11335;43.848;25.958;2022-10-16T16:56:54;41.55;;;21.88;;
22334;SDS011;11335;43.848;25.958;2022-10-16T16:59:40;49.05;;;22.73;;
22334;SDS011;11335;43.848;25.958;2022-10-16T17:02:25;48.53;;;23.95;;
22334;SDS011;11335;43.848;25.958;2022-10-16T17:05:11;45.88;;;23.50;;
22334;SDS011;11335;43.848;25.958;2022-10-16T17:07:57;41.05;;;23.13;;
22334;SDS011;11335;43.848;25.958;2022-10-16T17:10:43;34.45;;;20.60;;
22334;SDS011;11335;43.848;25.958;2022-10-16T17:13:30;35.40;;;21.70;;
22334;SDS011;11335;43.848;25.958;2022-10-16T17:16:16;36.42;;;21.10;;
22334;SDS011;11335;43.848;25.958;2022-10-16T17:19:06;38.53;;;20.98;;
22334;SDS011;11335;43.848;25.958;2022-10-16T17:21:51;35.53;;;20.60;;
22334;SDS011;11335;43.848;25.958;2022-10-16T17:24:37;39.17;;;19.45;;
22334;SDS011;11335;43.848;25.958;2022-10-16T17:27:23;31.58;;;18.45;;
22334;SDS011;11335;43.848;25.958;2022-10-16T17:30:08;28.33;;;15.82;;
22334;SDS011;11335;43.848;25.958;2022-10-16T17:32:54;26.95;;;15.93;;
22334;SDS011;11335;43.848;25.958;2022-10-16T17:35:43;32.50;;;16.00;;
22334;SDS011;11335;43.848;25.958;2022-10-16T17:38:29;32.40;;;16.02;;
22334;SDS011;11335;43.848;25.958;2022-10-16T17:41:20;27.73;;;14.63;;
22334;SDS011;11335;43.848;25.958;2022-10-16T17:44:06;25.58;;;14.95;;
22334;SDS011;11335;43.848;25.958;2022-10-16T17:46:52;29.27;;;14.63;;